createdAt,value
2023-12-02T00:01:27.391Z,96.64
2023-12-02T00:03:56.237Z,96.50
2023-12-02T00:06:24.902Z,96.56
2023-12-02T00:08:53.747Z,96.64
2023-12-02T00:11:23.753Z,96.36
2023-12-02T00:13:53.178Z,96.30
2023-12-02T00:16:21.853Z,96.79
2023-12-02T00:18:51.300Z,96.73
2023-12-02T00:21:20.256Z,96.53
2023-12-02T00:23:48.952Z,96.27
2023-12-02T00:26:17.600Z,96.04
2023-12-02T00:28:58.268Z,95.94
2023-12-02T00:31:26.997Z,95.85
2023-12-02T00:33:57.936Z,95.98
2023-12-02T00:36:26.626Z,95.81
2023-12-02T00:38:55.224Z,95.74
2023-12-02T00:41:23.956Z,95.88
2023-12-02T00:43:52.435Z,95.68
2023-12-02T00:46:23.088Z,95.46
2023-12-02T00:48:52.050Z,95.36
2023-12-02T00:51:20.790Z,95.03
2023-12-02T00:53:49.745Z,94.95
2023-12-02T00:56:19.417Z,94.86
2023-12-02T00:58:48.237Z,94.48
2023-12-02T01:01:16.988Z,94.79
2023-12-02T01:03:47.169Z,94.48
2023-12-02T01:06:15.881Z,94.42
2023-12-02T01:08:44.660Z,94.63
2023-12-02T01:11:13.468Z,94.27
2023-12-02T01:13:42.087Z,94.39
2023-12-02T01:16:11.746Z,94.45
2023-12-02T01:18:40.301Z,94.10
2023-12-02T01:21:10.919Z,93.54
2023-12-02T01:23:39.503Z,93.82
2023-12-02T01:26:08.729Z,93.57
2023-12-02T01:28:37.235Z,93.67
2023-12-02T01:31:06.007Z,93.12
2023-12-02T01:33:34.619Z,93.48
2023-12-02T01:36:03.507Z,93.52
2023-12-02T01:38:33.497Z,93.74
2023-12-02T01:41:02.090Z,93.75
2023-12-02T01:43:30.720Z,93.73
2023-12-02T01:45:59.302Z,93.66
2023-12-02T01:48:32.008Z,93.73
2023-12-02T01:51:01.578Z,93.63
2023-12-02T01:53:30.283Z,93.80
2023-12-02T01:56:00.500Z,93.68
2023-12-02T01:58:29.712Z,93.98
2023-12-02T02:00:58.206Z,93.86
2023-12-02T02:03:26.802Z,93.90
2023-12-02T02:05:55.551Z,94.16
2023-12-02T02:08:24.243Z,94.27
2023-12-02T02:10:57.417Z,94.34
2023-12-02T02:13:27.536Z,94.73
2023-12-02T02:15:57.005Z,94.91
2023-12-02T02:18:25.832Z,94.96
2023-12-02T02:20:55.549Z,95.04
2023-12-02T02:23:25.939Z,95.19
2023-12-02T02:25:55.508Z,95.09
2023-12-02T02:28:24.959Z,94.89
2023-12-02T02:30:54.065Z,95.12
2023-12-02T02:33:23.173Z,95.23
2023-12-02T02:35:51.772Z,95.40
2023-12-02T02:38:20.262Z,95.40
2023-12-02T02:40:50.221Z,95.47
2023-12-02T02:43:19.022Z,95.32
2023-12-02T02:45:47.807Z,95.34
2023-12-02T02:48:16.466Z,95.18
2023-12-02T02:50:45.428Z,95.35
2023-12-02T02:53:14.031Z,95.22
2023-12-02T02:55:43.781Z,95.91
2023-12-02T02:58:14.123Z,95.91
2023-12-02T03:00:42.710Z,95.63
2023-12-02T03:03:10.199Z,96.08
2023-12-02T03:05:39.287Z,96.14
2023-12-02T03:08:07.897Z,95.96
2023-12-02T03:10:36.588Z,95.94
2023-12-02T03:13:05.088Z,95.82
2023-12-02T03:15:35.228Z,95.99
2023-12-02T03:18:04.152Z,96.06
2023-12-02T03:20:32.735Z,96.13
2023-12-02T03:23:01.288Z,95.62
2023-12-02T03:25:29.883Z,95.97
2023-12-02T03:27:58.523Z,95.61
2023-12-02T03:30:27.090Z,95.68
2023-12-02T03:32:57.177Z,95.41
2023-12-02T03:35:25.934Z,95.20
2023-12-02T03:37:54.621Z,95.03
2023-12-02T03:40:23.081Z,94.57
2023-12-02T03:42:51.806Z,94.42
2023-12-02T03:45:20.421Z,94.44
2023-12-02T03:47:49.118Z,94.31
2023-12-02T03:50:20.280Z,93.88
2023-12-02T03:52:49.244Z,94.35
2023-12-02T03:55:19.666Z,94.31
2023-12-02T03:57:48.323Z,94.57
2023-12-02T04:00:20.712Z,94.24
2023-12-02T04:02:49.609Z,94.17
2023-12-02T04:05:19.721Z,93.91
2023-12-02T04:07:48.507Z,94.34
2023-12-02T04:10:17.096Z,93.68
2023-12-02T04:12:45.873Z,93.71
2023-12-02T04:15:14.451Z,93.63
2023-12-02T04:17:43.585Z,93.59
2023-12-02T04:20:16.480Z,93.58
2023-12-02T04:22:46.521Z,93.19
2023-12-02T04:25:15.480Z,93.67
2023-12-02T04:27:44.367Z,93.60
2023-12-02T04:30:13.535Z,93.53
2023-12-02T04:32:42.383Z,93.47
2023-12-02T04:35:11.711Z,93.31
2023-12-02T04:37:40.297Z,93.50
2023-12-02T04:40:13.039Z,93.38
2023-12-02T04:42:42.035Z,93.22
2023-12-02T04:45:11.756Z,92.98
2023-12-02T04:47:41.169Z,93.12
2023-12-02T04:50:16.887Z,92.61
2023-12-02T04:53:00.447Z,92.18
2023-12-02T04:55:30.842Z,92.34
2023-12-02T04:57:59.515Z,92.01
2023-12-02T05:00:28.892Z,91.03
2023-12-02T05:02:57.660Z,91.40
2023-12-02T05:05:26.316Z,91.18
2023-12-02T05:07:54.843Z,91.56
2023-12-02T05:10:23.433Z,91.76
2023-12-02T05:12:53.419Z,91.46
2023-12-02T05:15:22.826Z,91.09
2023-12-02T05:17:52.295Z,91.11
2023-12-02T05:20:21.893Z,91.03
2023-12-02T05:22:51.280Z,89.95
2023-12-02T05:25:20.023Z,90.15
2023-12-02T05:27:48.570Z,89.86
2023-12-02T05:30:19.418Z,89.11
2023-12-02T05:32:48.164Z,89.16
2023-12-02T05:35:16.905Z,89.59
2023-12-02T05:37:45.482Z,89.75
2023-12-02T05:40:14.613Z,89.72
2023-12-02T05:42:43.186Z,88.99
2023-12-02T05:45:12.681Z,89.38
2023-12-02T05:47:42.907Z,88.79
2023-12-02T05:50:12.082Z,88.88
2023-12-02T05:52:40.870Z,88.55
2023-12-02T05:55:11.196Z,89.11
2023-12-02T05:57:40.133Z,88.81
2023-12-02T06:00:09.681Z,88.32
2023-12-02T06:02:38.294Z,87.91
2023-12-02T06:05:09.334Z,88.38
2023-12-02T06:07:38.011Z,87.80
2023-12-02T06:10:08.758Z,88.13
2023-12-02T06:12:37.658Z,88.09
2023-12-02T06:15:08.255Z,88.28
2023-12-02T06:17:36.964Z,87.82
2023-12-02T06:20:08.168Z,87.70
2023-12-02T06:22:36.806Z,87.76
2023-12-02T06:25:05.986Z,87.70
2023-12-02T06:27:34.660Z,87.96
2023-12-02T06:30:03.317Z,88.00
2023-12-02T06:32:33.476Z,87.58
2023-12-02T06:35:02.228Z,87.66
2023-12-02T06:37:34.437Z,87.69
2023-12-02T06:40:03.156Z,88.05
2023-12-02T06:42:33.283Z,88.40
2023-12-02T06:45:02.133Z,88.31
2023-12-02T06:47:32.615Z,88.46
2023-12-02T06:50:01.238Z,88.51
2023-12-02T06:52:29.890Z,88.07
2023-12-02T06:57:32.613Z,88.70
2023-12-02T07:00:01.661Z,88.87
2023-12-02T07:02:32.620Z,88.64
2023-12-02T07:05:01.431Z,88.13
2023-12-02T07:07:30.439Z,88.29
2023-12-02T07:10:00.635Z,88.37
2023-12-02T07:12:29.190Z,88.73
2023-12-02T07:14:57.851Z,88.93
2023-12-02T07:17:26.418Z,88.46
2023-12-02T07:19:55.157Z,88.68
2023-12-02T07:22:23.718Z,88.87
2023-12-02T07:24:52.553Z,88.60
2023-12-02T07:27:23.126Z,88.93
2023-12-02T07:32:26.818Z,88.87
2023-12-02T07:34:55.687Z,89.11
2023-12-02T07:37:24.455Z,88.69
2023-12-02T07:39:53.302Z,89.17
2023-12-02T07:42:23.411Z,89.42
2023-12-02T07:44:52.186Z,89.28
2023-12-02T07:47:20.844Z,89.60
2023-12-02T07:49:49.688Z,89.51
2023-12-02T07:52:18.259Z,89.69
2023-12-02T07:54:46.974Z,89.56
2023-12-02T07:57:15.545Z,89.53
2023-12-02T07:59:45.564Z,89.94
2023-12-02T08:02:14.396Z,89.78
2023-12-02T08:04:43.133Z,90.21
2023-12-02T08:07:11.871Z,90.02
2023-12-02T08:09:40.576Z,90.18
2023-12-02T08:12:09.877Z,90.21
2023-12-02T08:14:38.437Z,90.30
2023-12-02T08:17:09.031Z,90.32
2023-12-02T08:19:38.187Z,90.49
2023-12-02T08:22:06.920Z,90.26
2023-12-02T08:24:37.603Z,90.66
2023-12-02T08:27:06.467Z,90.50
2023-12-02T08:29:35.066Z,90.56
2023-12-02T08:32:04.542Z,90.28
2023-12-02T08:34:34.748Z,90.82
2023-12-02T08:37:03.273Z,90.55
2023-12-02T08:39:31.776Z,90.86
2023-12-02T08:42:00.285Z,91.02
2023-12-02T08:44:29.067Z,90.62
2023-12-02T08:47:00.174Z,91.28
2023-12-02T08:49:28.891Z,91.15
2023-12-02T08:51:58.915Z,91.25
2023-12-02T08:54:27.629Z,91.40
2023-12-02T08:56:56.716Z,91.06
2023-12-02T08:59:25.418Z,91.34
2023-12-02T09:01:54.358Z,91.63
2023-12-02T09:04:22.965Z,91.56
2023-12-02T09:06:51.433Z,91.87
2023-12-02T09:09:21.475Z,91.83
2023-12-02T09:11:51.640Z,91.77
2023-12-02T09:14:21.419Z,92.22
2023-12-02T09:16:51.706Z,92.25
2023-12-02T09:19:53.787Z,92.07
2023-12-02T09:22:50.653Z,92.39
2023-12-02T09:25:30.641Z,92.39
2023-12-02T09:28:35.370Z,92.25
2023-12-02T09:31:10.033Z,92.11
2023-12-02T09:33:41.513Z,92.45
2023-12-02T09:36:28.047Z,92.29
2023-12-02T09:38:56.808Z,92.23
2023-12-02T09:41:47.863Z,92.14
2023-12-02T09:44:26.269Z,92.77
2023-12-02T09:47:05.695Z,92.44
2023-12-02T09:50:01.498Z,92.47
2023-12-02T09:52:49.530Z,92.72
2023-12-02T09:55:23.322Z,92.58
2023-12-02T09:58:02.600Z,92.58
2023-12-02T10:00:41.706Z,92.79
2023-12-02T10:03:31.768Z,92.77
2023-12-02T10:06:27.987Z,92.52
2023-12-02T10:09:03.992Z,92.54
2023-12-02T10:11:40.761Z,92.22
2023-12-02T10:14:13.408Z,92.62
2023-12-02T10:16:43.548Z,92.25
2023-12-02T10:19:14.617Z,92.21
2023-12-02T10:21:48.134Z,92.32
2023-12-02T10:24:24.934Z,92.14
2023-12-02T10:27:00.753Z,92.22
2023-12-02T10:29:36.608Z,92.60
2023-12-02T10:32:14.508Z,92.27
2023-12-02T10:34:53.327Z,92.37
2023-12-02T10:37:27.420Z,92.30
2023-12-02T10:39:59.333Z,92.72
2023-12-02T10:42:32.122Z,92.46
2023-12-02T10:45:06.680Z,92.65
2023-12-02T10:47:35.991Z,92.62
2023-12-02T10:50:06.452Z,92.53
2023-12-02T10:55:10.493Z,92.99
2023-12-02T10:57:40.745Z,92.42
2023-12-02T11:00:13.643Z,92.73
2023-12-02T11:02:52.553Z,93.01
2023-12-02T11:05:26.601Z,93.11
2023-12-02T11:07:57.085Z,93.24
2023-12-02T11:10:35.429Z,93.07
2023-12-02T11:13:05.579Z,93.32
2023-12-02T11:16:15.864Z,93.28
2023-12-02T11:19:12.063Z,93.23
2023-12-02T11:22:01.901Z,92.95
2023-12-02T11:24:46.206Z,93.42
2023-12-02T11:27:29.131Z,93.12
2023-12-02T11:30:12.457Z,93.33
2023-12-02T11:32:58.497Z,93.53
2023-12-02T11:35:38.423Z,93.45
2023-12-02T11:38:18.364Z,93.64
2023-12-02T11:41:00.665Z,93.44
2023-12-02T11:43:43.761Z,93.44
2023-12-02T11:46:20.097Z,93.57
2023-12-02T11:49:00.383Z,93.97
2023-12-02T11:51:50.898Z,93.94
2023-12-02T11:54:30.415Z,93.90
2023-12-02T11:57:19.157Z,94.06
2023-12-02T12:00:05.025Z,94.24
2023-12-02T12:03:20.502Z,94.42
2023-12-02T12:06:00.278Z,94.18
2023-12-02T12:08:38.255Z,94.44
2023-12-02T12:11:13.562Z,94.15
2023-12-02T12:13:42.687Z,94.04
2023-12-02T12:16:11.799Z,94.08
2023-12-02T12:18:40.390Z,94.26
2023-12-02T12:21:11.532Z,94.28
2023-12-02T12:23:40.376Z,94.35
2023-12-02T12:26:09.327Z,94.22
2023-12-02T12:28:40.518Z,94.43
2023-12-02T12:31:12.843Z,94.53
2023-12-02T12:33:41.883Z,94.50
2023-12-02T12:36:13.235Z,94.44
2023-12-02T12:38:41.862Z,94.53
2023-12-02T12:41:10.676Z,94.72
2023-12-02T12:43:39.542Z,94.51
2023-12-02T12:46:13.041Z,94.69
2023-12-02T12:48:41.766Z,94.29
2023-12-02T12:51:14.212Z,94.53
2023-12-02T12:53:53.343Z,94.41
2023-12-02T12:56:32.025Z,94.51
2023-12-02T12:59:01.952Z,94.69
2023-12-02T13:01:34.801Z,94.71
2023-12-02T13:04:07.996Z,95.01
2023-12-02T13:06:46.490Z,95.07
2023-12-02T13:09:15.715Z,95.15
2023-12-02T13:11:59.724Z,95.30
2023-12-02T13:14:36.710Z,95.35
2023-12-02T13:17:06.445Z,95.38
2023-12-02T13:19:38.227Z,94.84
2023-12-02T13:22:09.437Z,94.92
2023-12-02T13:24:41.573Z,95.30
2023-12-02T13:27:16.796Z,95.20
2023-12-02T13:29:48.217Z,95.80
2023-12-02T13:32:17.985Z,95.60
2023-12-02T13:34:51.820Z,95.33
2023-12-02T13:37:31.631Z,95.31
2023-12-02T13:40:01.857Z,95.38
2023-12-02T13:42:39.166Z,95.52
2023-12-02T13:45:11.984Z,95.34
2023-12-02T13:47:54.507Z,95.31
2023-12-02T13:50:25.298Z,95.15
2023-12-02T13:53:10.349Z,95.23
2023-12-02T13:55:54.711Z,94.94
2023-12-02T13:58:24.006Z,94.91
2023-12-02T14:01:14.897Z,94.76
2023-12-02T14:04:02.108Z,94.66
2023-12-02T14:06:43.791Z,94.37
2023-12-02T14:09:22.053Z,94.33
2023-12-02T14:11:58.536Z,94.39
2023-12-02T14:14:48.602Z,94.66
2023-12-02T14:17:29.428Z,95.02
2023-12-02T14:20:19.127Z,95.02
2023-12-02T14:23:17.002Z,94.72
2023-12-02T14:26:08.860Z,94.87
2023-12-02T14:28:52.693Z,94.92
2023-12-02T14:31:44.108Z,94.76
2023-12-02T14:34:32.068Z,95.33
2023-12-02T14:37:20.109Z,95.13
2023-12-02T14:40:04.403Z,95.35
2023-12-02T14:42:47.802Z,95.08
2023-12-02T14:45:18.683Z,95.22
2023-12-02T14:47:47.594Z,95.25
2023-12-02T14:50:16.464Z,95.79
2023-12-02T14:52:46.115Z,95.71
2023-12-02T14:55:16.152Z,95.38
2023-12-02T14:57:46.181Z,95.76
2023-12-02T15:00:17.224Z,95.81
2023-12-02T15:02:52.365Z,95.92
2023-12-02T15:05:22.537Z,96.00
2023-12-02T15:07:54.683Z,95.82
2023-12-02T15:10:33.479Z,95.81
2023-12-02T15:13:12.231Z,95.73
2023-12-02T15:15:43.410Z,95.92
2023-12-02T15:18:16.981Z,96.20
2023-12-02T15:21:04.437Z,95.86
2023-12-02T15:23:38.284Z,95.72
2023-12-02T15:26:11.158Z,96.09
2023-12-02T15:28:50.289Z,96.40
2023-12-02T15:31:33.870Z,96.28
2023-12-02T15:34:05.152Z,96.09
2023-12-02T15:36:33.963Z,95.86
2023-12-02T15:39:02.692Z,95.41
2023-12-02T15:41:31.748Z,96.20
2023-12-02T15:44:02.003Z,95.99
2023-12-02T15:46:30.827Z,96.04
2023-12-02T15:49:00.492Z,95.66
2023-12-02T15:51:31.899Z,95.81
2023-12-02T15:54:01.905Z,95.92
2023-12-02T15:56:32.855Z,96.15
2023-12-02T15:59:03.157Z,95.75
2023-12-02T16:01:31.857Z,96.11
2023-12-02T16:04:01.990Z,96.32
2023-12-02T16:06:33.026Z,96.25
2023-12-02T16:09:02.964Z,96.16
2023-12-02T16:11:36.737Z,96.26
2023-12-02T16:14:07.481Z,96.14
2023-12-02T16:16:38.935Z,95.96
2023-12-02T16:19:08.353Z,96.56
2023-12-02T16:21:37.241Z,96.07
2023-12-02T16:24:07.504Z,96.20
2023-12-02T16:26:38.457Z,96.16
2023-12-02T16:29:08.956Z,96.40
2023-12-02T16:31:38.306Z,96.21
2023-12-02T16:34:07.354Z,95.81
2023-12-02T16:36:38.256Z,95.80
2023-12-02T16:39:11.603Z,96.09
2023-12-02T16:41:40.458Z,95.80
2023-12-02T16:44:10.574Z,96.09
2023-12-02T16:46:42.453Z,96.22
2023-12-02T16:49:18.354Z,96.27
2023-12-02T16:51:47.338Z,96.35
2023-12-02T16:54:16.698Z,95.99
2023-12-02T16:56:45.859Z,96.11
2023-12-02T16:59:48.253Z,96.12
2023-12-02T17:02:31.515Z,95.76
2023-12-02T17:05:00.213Z,96.14
2023-12-02T17:07:30.126Z,96.20
2023-12-02T17:09:58.664Z,95.99
2023-12-02T17:12:27.695Z,96.26
2023-12-02T17:15:07.089Z,95.92
2023-12-02T17:17:35.808Z,96.62
2023-12-02T17:20:14.714Z,96.34
2023-12-02T17:22:43.951Z,96.72
2023-12-02T17:25:48.107Z,96.69
2023-12-02T17:28:17.623Z,96.42
2023-12-02T17:30:47.518Z,96.92
2023-12-02T17:33:16.255Z,96.77
2023-12-02T17:35:44.856Z,97.17
2023-12-02T17:38:13.375Z,97.02
2023-12-02T17:40:42.001Z,97.42
2023-12-02T17:43:10.502Z,97.06
2023-12-02T17:45:43.732Z,97.33
2023-12-02T17:48:15.356Z,97.22
2023-12-02T17:50:43.999Z,97.10
2023-12-02T17:53:12.644Z,97.21
2023-12-02T17:55:41.244Z,97.20
2023-12-02T17:58:10.004Z,97.44
2023-12-02T18:00:41.337Z,97.52
2023-12-02T18:03:11.141Z,97.16
2023-12-02T18:05:41.386Z,96.88
2023-12-02T18:08:10.915Z,96.96
2023-12-02T18:10:39.478Z,97.38
2023-12-02T18:13:08.049Z,97.29
2023-12-02T18:15:38.805Z,96.90
2023-12-02T18:18:07.696Z,97.18
2023-12-02T18:20:36.587Z,97.02
2023-12-02T18:23:08.466Z,96.94
2023-12-02T18:25:37.099Z,97.09
2023-12-02T18:28:05.906Z,96.84
2023-12-02T18:30:34.899Z,96.90
2023-12-02T18:33:03.595Z,97.17
2023-12-02T18:35:32.173Z,96.70
2023-12-02T18:38:00.904Z,97.03
2023-12-02T18:40:32.715Z,96.92
2023-12-02T18:43:01.264Z,96.87
2023-12-02T18:45:33.122Z,96.76
2023-12-02T18:48:02.873Z,96.48
2023-12-02T18:50:31.580Z,96.47
2023-12-02T18:53:00.307Z,96.37
2023-12-02T18:55:30.453Z,96.29
2023-12-02T18:57:59.084Z,96.12
2023-12-02T19:00:29.069Z,96.43
2023-12-02T19:02:58.207Z,96.34
2023-12-02T19:05:26.834Z,96.30
2023-12-02T19:07:55.460Z,96.24
2023-12-02T19:10:24.000Z,96.42
2023-12-02T19:12:53.995Z,96.45
2023-12-02T19:15:22.666Z,96.64
2023-12-02T19:17:52.093Z,96.78
2023-12-02T19:20:21.047Z,96.64
2023-12-02T19:22:51.906Z,96.59
2023-12-02T19:25:20.370Z,96.78
2023-12-02T19:27:48.942Z,96.32
2023-12-02T19:30:19.219Z,96.59
2023-12-02T19:32:47.646Z,96.83
2023-12-02T19:35:16.954Z,96.48
2023-12-02T19:37:45.641Z,96.39
2023-12-02T19:40:14.550Z,96.56
2023-12-02T19:42:43.230Z,96.60
2023-12-02T19:45:11.965Z,96.48
2023-12-02T19:47:42.084Z,95.97
2023-12-02T19:50:13.175Z,96.05
2023-12-02T19:52:42.065Z,96.41
2023-12-02T19:55:10.755Z,96.54
2023-12-02T19:57:39.451Z,96.59
2023-12-02T20:00:10.080Z,96.39
2023-12-02T20:02:40.195Z,96.34
2023-12-02T20:05:13.128Z,96.07
2023-12-02T20:07:42.179Z,96.28
2023-12-02T20:10:11.522Z,96.30
2023-12-02T20:12:40.193Z,96.25
2023-12-02T20:15:11.521Z,96.31
2023-12-02T20:17:40.327Z,96.16
2023-12-02T20:20:11.934Z,96.58
2023-12-02T20:22:40.442Z,96.06
2023-12-02T20:25:09.846Z,96.11
2023-12-02T20:27:38.598Z,96.18
2023-12-02T20:30:08.927Z,96.41
2023-12-02T20:32:37.636Z,96.06
2023-12-02T20:35:07.303Z,96.63
2023-12-02T20:37:37.515Z,96.18
2023-12-02T20:40:07.434Z,96.46
2023-12-02T20:42:35.987Z,96.30
2023-12-02T20:45:06.007Z,96.17
2023-12-02T20:47:36.664Z,96.28
2023-12-02T20:50:06.103Z,96.41
2023-12-02T20:52:34.768Z,96.26
2023-12-02T20:55:04.749Z,96.10
2023-12-02T20:57:33.482Z,96.07
2023-12-02T21:00:02.167Z,95.92
2023-12-02T21:02:35.656Z,96.15
2023-12-02T21:05:04.477Z,96.62
2023-12-02T21:07:33.125Z,96.11
2023-12-02T21:10:01.932Z,96.12
2023-12-02T21:12:35.835Z,96.37
2023-12-02T21:15:05.576Z,96.47
2023-12-02T21:17:34.810Z,96.39
2023-12-02T21:20:03.427Z,96.23
2023-12-02T21:22:32.497Z,96.56
2023-12-02T21:25:01.955Z,96.61
2023-12-02T21:27:34.399Z,96.51
2023-12-02T21:30:04.848Z,96.50
2023-12-02T21:32:35.390Z,96.59
2023-12-02T21:35:11.268Z,96.63
2023-12-02T21:37:40.518Z,96.68
2023-12-02T21:40:11.121Z,96.77
2023-12-02T21:42:41.060Z,96.87
2023-12-02T21:45:33.840Z,96.54
2023-12-02T21:48:06.096Z,96.69
2023-12-02T21:50:35.298Z,96.59
2023-12-02T21:53:03.792Z,96.72
2023-12-02T21:55:32.571Z,96.79
2023-12-02T21:58:03.080Z,96.82
2023-12-02T22:00:31.988Z,96.82
2023-12-02T22:03:06.062Z,97.02
2023-12-02T22:05:36.609Z,96.64
2023-12-02T22:08:07.876Z,96.74
2023-12-02T22:10:39.819Z,96.83
2023-12-02T22:13:17.616Z,96.63
2023-12-02T22:15:47.333Z,96.75
2023-12-02T22:18:17.537Z,96.75
2023-12-02T22:20:46.191Z,96.70
2023-12-02T22:23:16.119Z,96.53
2023-12-02T22:25:46.055Z,96.56
2023-12-02T22:28:19.100Z,96.38
2023-12-02T22:30:49.799Z,96.56
2023-12-02T22:33:22.410Z,96.50
2023-12-02T22:35:56.881Z,96.43
2023-12-02T22:38:35.673Z,96.52
2023-12-02T22:41:04.712Z,96.58
2023-12-02T22:43:41.100Z,96.73
2023-12-02T22:46:11.507Z,96.70
2023-12-02T22:48:41.733Z,96.62
2023-12-02T22:51:15.876Z,96.45
2023-12-02T22:53:44.815Z,96.38
2023-12-02T22:56:13.873Z,96.55
2023-12-02T22:58:47.429Z,96.64
2023-12-02T23:01:21.771Z,96.32
2023-12-02T23:03:52.501Z,96.36
2023-12-02T23:06:28.640Z,96.40
2023-12-02T23:08:57.846Z,96.32
2023-12-02T23:11:50.133Z,96.22
2023-12-02T23:14:38.574Z,96.42
2023-12-02T23:17:07.488Z,96.38
2023-12-02T23:19:37.884Z,96.45
2023-12-02T23:22:08.303Z,96.09
2023-12-02T23:24:38.412Z,96.38
2023-12-02T23:27:08.231Z,96.07
2023-12-02T23:29:40.348Z,96.50
2023-12-02T23:32:09.115Z,95.94
2023-12-02T23:34:37.712Z,96.14
2023-12-02T23:37:06.410Z,96.21
2023-12-02T23:39:35.032Z,96.00
2023-12-02T23:42:04.780Z,95.82
2023-12-02T23:44:44.705Z,96.03
2023-12-02T23:47:18.981Z,96.19
2023-12-02T23:49:47.772Z,95.83
2023-12-02T23:52:16.671Z,95.88
2023-12-02T23:54:45.406Z,96.12
2023-12-02T23:57:14.595Z,96.27
2023-12-02T23:59:45.292Z,96.37
